createdAt,value
2023-03-18T00:00:34.150Z,2.03
2023-03-18T00:03:01.264Z,1.95
2023-03-18T00:05:28.903Z,1.80
2023-03-18T00:07:56.697Z,1.88
2023-03-18T00:10:24.077Z,2.08
2023-03-18T00:12:51.826Z,1.95
2023-03-18T00:15:19.617Z,2.22
2023-03-18T00:17:48.671Z,2.05
2023-03-18T00:20:18.599Z,1.88
2023-03-18T00:22:46.715Z,1.95
2023-03-18T00:25:15.440Z,2.05
2023-03-18T00:27:43.049Z,1.88
2023-03-18T00:30:12.472Z,2.00
2023-03-18T00:32:39.673Z,1.92
2023-03-18T00:35:07.065Z,2.15
2023-03-18T00:37:35.762Z,2.28
2023-03-18T00:40:10.281Z,1.52
2023-03-18T00:42:42.662Z,2.00
2023-03-18T00:45:12.065Z,2.00
2023-03-18T00:47:39.417Z,1.98
2023-03-18T00:50:08.614Z,2.22
2023-03-18T00:52:36.557Z,2.55
2023-03-18T00:55:04.565Z,2.53
2023-03-18T00:57:33.924Z,2.45
2023-03-18T01:00:01.717Z,1.70
2023-03-18T01:02:29.822Z,2.50
2023-03-18T01:04:57.905Z,2.38
2023-03-18T01:07:25.602Z,2.20
2023-03-18T01:09:54.765Z,2.60
2023-03-18T01:12:22.813Z,1.77
2023-03-18T01:14:50.228Z,1.80
2023-03-18T01:17:17.797Z,1.30
2023-03-18T01:19:45.275Z,1.27
2023-03-18T01:22:12.407Z,1.25
2023-03-18T01:24:46.378Z,1.83
2023-03-18T01:27:15.005Z,1.80
2023-03-18T01:29:46.582Z,2.35
2023-03-18T01:32:19.500Z,2.25
2023-03-18T01:34:47.011Z,1.70
2023-03-18T01:37:14.606Z,2.05
2023-03-18T01:39:45.659Z,1.40
2023-03-18T01:42:20.139Z,2.25
2023-03-18T01:44:48.271Z,1.80
2023-03-18T01:47:18.632Z,1.38
2023-03-18T01:49:52.910Z,1.67
2023-03-18T01:52:25.332Z,1.55
2023-03-18T01:55:07.511Z,1.83
2023-03-18T01:57:35.837Z,1.98
2023-03-18T02:00:04.520Z,1.52
2023-03-18T02:02:42.697Z,1.48
2023-03-18T02:05:14.945Z,1.20
2023-03-18T02:07:44.448Z,1.50
2023-03-18T02:10:32.419Z,1.60
2023-03-18T02:13:07.942Z,1.38
2023-03-18T02:15:47.155Z,2.17
2023-03-18T02:18:23.366Z,3.17
2023-03-18T02:20:50.937Z,3.35
2023-03-18T02:23:48.099Z,3.97
2023-03-18T02:26:33.813Z,3.25
2023-03-18T02:29:04.716Z,3.53
2023-03-18T02:31:41.730Z,2.78
2023-03-18T02:34:10.129Z,1.95
2023-03-18T02:36:39.018Z,1.20
2023-03-18T02:39:14.880Z,1.90
2023-03-18T02:41:43.619Z,1.52
2023-03-18T02:44:13.743Z,1.50
2023-03-18T02:47:04.150Z,1.33
2023-03-18T02:49:32.683Z,1.58
2023-03-18T02:52:01.310Z,1.33
2023-03-18T02:54:30.921Z,1.25
2023-03-18T02:56:58.510Z,1.60
2023-03-18T02:59:26.508Z,2.35
2023-03-18T03:01:55.043Z,2.25
2023-03-18T03:04:24.779Z,2.47
2023-03-18T03:06:54.475Z,2.10
2023-03-18T03:09:34.387Z,2.25
2023-03-18T03:12:01.646Z,2.20
2023-03-18T03:14:29.901Z,1.60
2023-03-18T03:17:00.550Z,2.00
2023-03-18T03:19:27.701Z,2.63
2023-03-18T03:21:55.880Z,2.15
2023-03-18T03:24:25.773Z,2.53
2023-03-18T03:26:52.828Z,2.15
2023-03-18T03:29:20.818Z,2.50
2023-03-18T03:31:50.208Z,2.53
2023-03-18T03:34:18.036Z,2.97
2023-03-18T03:36:45.193Z,2.47
2023-03-18T03:39:12.457Z,2.50
2023-03-18T03:41:40.204Z,3.08
2023-03-18T03:44:07.584Z,2.53
2023-03-18T03:46:35.984Z,2.05
2023-03-18T03:49:03.787Z,1.63
2023-03-18T03:51:31.337Z,1.60
2023-03-18T03:53:58.978Z,1.10
2023-03-18T03:56:27.146Z,2.10
2023-03-18T03:58:54.205Z,2.10
2023-03-18T04:01:23.408Z,2.35
2023-03-18T04:03:50.579Z,2.35
2023-03-18T04:06:18.647Z,1.83
2023-03-18T04:08:56.478Z,1.88
2023-03-18T04:11:23.862Z,2.75
2023-03-18T04:13:51.506Z,3.25
2023-03-18T04:16:18.889Z,3.15
2023-03-18T04:18:47.399Z,2.30
2023-03-18T04:21:14.975Z,1.75
2023-03-18T04:23:53.198Z,1.70
2023-03-18T04:26:21.381Z,1.55
2023-03-18T04:28:49.724Z,2.08
2023-03-18T04:31:17.128Z,1.50
2023-03-18T04:33:44.788Z,1.88
2023-03-18T04:36:12.999Z,1.88
2023-03-18T04:38:40.235Z,2.05
2023-03-18T04:41:07.974Z,1.95
2023-03-18T04:43:35.092Z,2.00
2023-03-18T04:46:02.858Z,1.60
2023-03-18T04:48:30.826Z,1.75
2023-03-18T04:50:59.856Z,2.40
2023-03-18T04:53:29.821Z,2.03
2023-03-18T04:55:58.043Z,1.77
2023-03-18T04:58:32.978Z,2.42
2023-03-18T05:01:26.028Z,2.40
2023-03-18T05:03:53.678Z,1.92
2023-03-18T05:06:29.970Z,2.13
2023-03-18T05:09:07.202Z,2.05
2023-03-18T05:11:35.279Z,2.30
2023-03-18T05:14:22.708Z,1.80
2023-03-18T05:16:50.892Z,1.40
2023-03-18T05:19:18.010Z,1.30
2023-03-18T05:21:52.802Z,1.73
2023-03-18T05:24:20.021Z,1.77
2023-03-18T05:26:47.977Z,1.23
2023-03-18T05:29:16.647Z,2.10
2023-03-18T05:32:02.772Z,1.33
2023-03-18T05:34:31.451Z,1.27
2023-03-18T05:36:59.129Z,1.80
2023-03-18T05:39:27.090Z,1.35
2023-03-18T05:41:54.301Z,2.40
2023-03-18T05:44:26.976Z,2.45
2023-03-18T05:46:56.727Z,2.55
2023-03-18T05:49:49.619Z,2.33
2023-03-18T05:52:19.842Z,1.80
2023-03-18T05:54:50.152Z,2.05
2023-03-18T05:57:25.467Z,1.75
2023-03-18T05:59:59.842Z,1.88
2023-03-18T06:02:28.167Z,1.65
2023-03-18T06:04:56.027Z,1.48
2023-03-18T06:07:23.939Z,1.27
2023-03-18T06:09:52.285Z,1.38
2023-03-18T06:12:20.395Z,1.27
2023-03-18T06:14:47.705Z,1.60
2023-03-18T06:17:16.517Z,1.67
2023-03-18T06:19:44.989Z,1.15
2023-03-18T06:22:12.747Z,1.60
2023-03-18T06:24:39.829Z,2.10
2023-03-18T06:27:07.358Z,2.17
2023-03-18T06:29:37.144Z,1.38
2023-03-18T06:32:11.959Z,2.53
2023-03-18T06:34:40.087Z,1.88
2023-03-18T06:37:08.332Z,2.55
2023-03-18T06:39:35.663Z,2.10
2023-03-18T06:42:06.213Z,2.30
2023-03-18T06:47:13.545Z,1.77
2023-03-18T06:49:47.093Z,1.05
2023-03-18T06:52:19.336Z,1.70
2023-03-18T06:54:48.809Z,2.70
2023-03-18T06:57:17.733Z,2.47
2023-03-18T06:59:45.877Z,1.73
2023-03-18T07:02:14.150Z,1.90
2023-03-18T07:04:41.747Z,3.55
2023-03-18T07:07:08.920Z,4.78
2023-03-18T07:09:37.312Z,3.33
2023-03-18T07:12:04.828Z,5.07
2023-03-18T07:14:32.019Z,4.80
2023-03-18T07:16:59.538Z,5.45
2023-03-18T07:19:26.714Z,5.45
2023-03-18T07:21:53.913Z,5.68
2023-03-18T07:24:21.502Z,4.55
2023-03-18T07:26:50.237Z,3.28
2023-03-18T07:29:17.791Z,2.97
2023-03-18T07:31:45.181Z,3.30
2023-03-18T07:34:14.873Z,2.90
2023-03-18T07:36:42.806Z,2.60
2023-03-18T07:39:11.370Z,2.78
2023-03-18T07:41:39.018Z,4.88
2023-03-18T07:44:07.766Z,7.32
2023-03-18T07:46:34.843Z,6.75
2023-03-18T07:49:02.305Z,5.70
2023-03-18T07:51:29.578Z,3.40
2023-03-18T07:53:56.684Z,2.70
2023-03-18T07:56:24.325Z,3.60
2023-03-18T07:58:51.747Z,2.72
2023-03-18T08:01:19.490Z,3.70
2023-03-18T08:03:47.340Z,3.80
2023-03-18T08:06:15.692Z,3.88
2023-03-18T08:08:43.836Z,3.30
2023-03-18T08:11:12.250Z,3.65
2023-03-18T08:13:39.798Z,3.85
2023-03-18T08:16:07.537Z,4.70
2023-03-18T08:18:35.629Z,4.45
2023-03-18T08:21:02.612Z,4.38
2023-03-18T08:23:29.620Z,5.25
2023-03-18T08:25:56.899Z,4.78
2023-03-18T08:28:23.858Z,4.22
2023-03-18T08:30:58.391Z,4.38
2023-03-18T08:33:27.848Z,2.95
2023-03-18T08:35:56.273Z,2.80
2023-03-18T08:38:25.084Z,2.60
2023-03-18T08:40:52.388Z,1.85
2023-03-18T08:43:22.147Z,1.75
2023-03-18T08:45:53.950Z,1.73
2023-03-18T08:48:22.362Z,2.08
2023-03-18T08:50:50.456Z,1.10
2023-03-18T08:53:18.060Z,1.65
2023-03-18T08:55:46.436Z,1.58
2023-03-18T08:58:13.593Z,1.83
2023-03-18T09:00:42.849Z,0.98
2023-03-18T09:03:10.179Z,1.25
2023-03-18T09:05:38.616Z,1.20
2023-03-18T09:08:06.551Z,1.10
2023-03-18T09:10:34.192Z,1.15
2023-03-18T09:13:01.179Z,1.30
2023-03-18T09:15:28.251Z,0.98
2023-03-18T09:18:10.239Z,1.10
2023-03-18T09:20:41.431Z,1.33
2023-03-18T09:23:10.088Z,1.05
2023-03-18T09:25:37.124Z,1.02
2023-03-18T09:28:04.394Z,1.08
2023-03-18T09:30:32.044Z,1.17
2023-03-18T09:32:59.623Z,1.05
2023-03-18T09:35:29.296Z,1.30
2023-03-18T09:37:57.340Z,1.25
2023-03-18T09:40:38.597Z,1.02
2023-03-18T09:43:32.253Z,0.88
2023-03-18T09:46:29.261Z,0.93
2023-03-18T09:49:36.945Z,1.10
2023-03-18T09:52:16.827Z,1.23
2023-03-18T09:55:30.181Z,1.27
2023-03-18T09:58:03.160Z,1.05
2023-03-18T10:00:38.661Z,1.48
2023-03-18T10:03:34.735Z,1.08
2023-03-18T10:06:21.835Z,0.75
2023-03-18T10:09:01.298Z,0.93
2023-03-18T10:11:37.294Z,0.93
2023-03-18T10:14:10.247Z,0.65
2023-03-18T10:17:09.354Z,0.70
2023-03-18T10:19:37.651Z,0.65
2023-03-18T10:22:16.108Z,0.80
2023-03-18T10:25:21.368Z,0.75
2023-03-18T10:28:33.519Z,0.50
2023-03-18T10:31:37.268Z,0.95
2023-03-18T10:34:31.240Z,0.60
2023-03-18T10:37:19.063Z,1.10
2023-03-18T10:39:48.718Z,0.90
2023-03-18T10:42:23.401Z,0.60
2023-03-18T10:44:55.987Z,0.90
2023-03-18T10:47:33.607Z,0.77
2023-03-18T10:50:00.757Z,0.90
2023-03-18T10:52:31.385Z,0.80
2023-03-18T10:54:58.552Z,0.75
2023-03-18T10:57:26.850Z,1.15
2023-03-18T10:59:54.684Z,0.77
2023-03-18T11:02:39.178Z,0.82
2023-03-18T11:05:20.813Z,0.75
2023-03-18T11:08:09.276Z,1.23
2023-03-18T11:10:45.971Z,0.70
2023-03-18T11:13:18.145Z,0.50
2023-03-18T11:18:23.151Z,0.60
2023-03-18T11:21:04.853Z,1.02
2023-03-18T11:23:48.956Z,1.05
2023-03-18T11:26:29.035Z,0.70
2023-03-18T11:29:06.408Z,0.93
2023-03-18T11:31:33.962Z,0.75
2023-03-18T11:34:02.066Z,0.57
2023-03-18T11:36:32.303Z,1.00
2023-03-18T11:39:04.836Z,1.40
2023-03-18T11:41:32.201Z,1.10
2023-03-18T11:44:06.076Z,1.00
2023-03-18T11:46:45.696Z,0.73
2023-03-18T11:49:22.850Z,1.02
2023-03-18T11:52:14.952Z,0.85
2023-03-18T11:54:47.813Z,0.95
2023-03-18T11:57:42.110Z,1.30
2023-03-18T12:00:46.063Z,0.75
2023-03-18T12:04:04.291Z,0.82
2023-03-18T12:06:36.016Z,0.85
2023-03-18T12:09:30.293Z,0.82
2023-03-18T12:12:19.612Z,0.90
2023-03-18T12:15:05.103Z,0.70
2023-03-18T12:17:52.361Z,0.77
2023-03-18T12:20:49.964Z,0.80
2023-03-18T12:23:54.059Z,0.65
2023-03-18T12:26:59.736Z,0.82
2023-03-18T12:30:15.506Z,1.40
2023-03-18T12:33:14.353Z,1.20
2023-03-18T12:35:50.882Z,1.30
2023-03-18T12:38:48.424Z,0.80
2023-03-18T12:41:31.471Z,0.82
2023-03-18T12:44:41.357Z,0.93
2023-03-18T12:47:25.101Z,0.57
2023-03-18T12:50:05.226Z,0.70
2023-03-18T12:52:45.061Z,1.60
2023-03-18T12:55:29.206Z,0.88
2023-03-18T12:58:04.502Z,0.70
2023-03-18T13:00:48.181Z,1.50
2023-03-18T13:03:37.768Z,1.00
2023-03-18T13:06:22.614Z,0.50
2023-03-18T13:09:22.498Z,0.80
2023-03-18T13:12:15.920Z,0.63
2023-03-18T13:15:00.658Z,1.30
2023-03-18T13:17:31.324Z,0.63
2023-03-18T13:20:01.358Z,0.63
2023-03-18T13:22:43.988Z,1.20
2023-03-18T13:25:51.770Z,1.23
2023-03-18T13:29:20.044Z,0.95
2023-03-18T13:32:28.094Z,0.57
2023-03-18T13:35:16.951Z,0.77
2023-03-18T13:38:06.196Z,0.80
2023-03-18T13:40:58.140Z,0.70
2023-03-18T13:43:26.336Z,0.95
2023-03-18T13:45:55.344Z,0.90
2023-03-18T13:48:34.464Z,0.55
2023-03-18T13:51:38.068Z,0.50
2023-03-18T13:54:14.421Z,0.68
2023-03-18T13:56:44.329Z,0.65
2023-03-18T13:59:33.023Z,0.40
2023-03-18T14:02:41.573Z,0.60
2023-03-18T14:05:36.872Z,0.57
2023-03-18T14:08:34.454Z,0.60
2023-03-18T14:11:22.580Z,0.70
2023-03-18T14:14:02.136Z,0.50
2023-03-18T14:16:36.205Z,0.50
2023-03-18T14:19:03.496Z,0.65
2023-03-18T14:21:34.065Z,0.70
2023-03-18T14:24:07.607Z,0.50
2023-03-18T14:26:35.225Z,0.85
2023-03-18T14:29:05.247Z,1.10
2023-03-18T14:31:43.005Z,0.40
2023-03-18T14:34:19.587Z,0.47
2023-03-18T14:37:16.200Z,0.50
2023-03-18T14:39:51.518Z,0.47
2023-03-18T14:42:32.797Z,0.40
2023-03-18T14:45:09.870Z,0.35
2023-03-18T14:47:47.743Z,0.90
2023-03-18T14:50:37.955Z,0.60
2023-03-18T14:53:22.826Z,0.60
2023-03-18T14:55:55.173Z,0.52
2023-03-18T14:58:24.693Z,0.80
2023-03-18T15:00:56.602Z,1.00
2023-03-18T15:03:29.767Z,1.75
2023-03-18T15:06:00.824Z,1.15
2023-03-18T15:08:48.032Z,0.90
2023-03-18T15:11:18.816Z,0.65
2023-03-18T15:13:46.351Z,0.57
2023-03-18T15:16:18.734Z,0.60
2023-03-18T15:18:46.271Z,0.60
2023-03-18T15:21:18.455Z,0.35
2023-03-18T15:23:56.264Z,0.60
2023-03-18T15:26:28.918Z,0.55
2023-03-18T15:29:00.217Z,0.60
2023-03-18T15:31:35.703Z,0.60
2023-03-18T15:34:22.226Z,0.68
2023-03-18T15:36:57.987Z,0.52
2023-03-18T15:39:32.183Z,0.32
2023-03-18T15:42:02.261Z,0.90
2023-03-18T15:44:40.098Z,0.60
2023-03-18T15:47:20.922Z,0.70
2023-03-18T15:50:15.031Z,0.80
2023-03-18T15:52:43.501Z,1.10
2023-03-18T15:55:37.341Z,0.90
2023-03-18T15:58:19.418Z,1.05
2023-03-18T16:00:46.936Z,0.50
2023-03-18T16:03:22.159Z,0.60
2023-03-18T16:05:50.412Z,0.50
2023-03-18T16:08:20.536Z,0.80
2023-03-18T16:10:55.421Z,0.80
2023-03-18T16:13:29.563Z,0.40
2023-03-18T16:15:56.870Z,0.57
2023-03-18T16:18:24.066Z,0.52
2023-03-18T16:20:52.887Z,0.70
2023-03-18T16:23:20.956Z,0.60
2023-03-18T16:25:51.995Z,0.80
2023-03-18T16:28:25.843Z,0.45
2023-03-18T16:30:56.227Z,0.70
2023-03-18T16:33:24.547Z,0.68
2023-03-18T16:36:02.406Z,0.77
2023-03-18T16:38:31.075Z,0.63
2023-03-18T16:40:58.296Z,0.60
2023-03-18T16:43:29.168Z,0.88
2023-03-18T16:46:04.379Z,0.80
2023-03-18T16:48:31.921Z,0.75
2023-03-18T16:51:02.294Z,0.80
2023-03-18T16:53:31.509Z,0.98
2023-03-18T16:56:20.749Z,1.52
2023-03-18T16:58:47.978Z,2.17
2023-03-18T17:01:16.806Z,2.40
2023-03-18T17:03:44.295Z,1.38
2023-03-18T17:06:12.640Z,0.80
2023-03-18T17:08:40.044Z,0.57
2023-03-18T17:11:07.528Z,0.85
2023-03-18T17:13:37.908Z,1.80
2023-03-18T17:16:05.406Z,0.80
2023-03-18T17:18:33.168Z,1.23
2023-03-18T17:21:00.810Z,1.40
2023-03-18T17:23:28.965Z,1.00
2023-03-18T17:26:02.865Z,0.95
2023-03-18T17:28:40.594Z,1.13
2023-03-18T17:31:07.675Z,1.15
2023-03-18T17:33:37.048Z,0.77
2023-03-18T17:36:06.634Z,1.20
2023-03-18T17:38:37.433Z,0.90
2023-03-18T17:41:14.091Z,0.90
2023-03-18T17:43:42.060Z,1.30
2023-03-18T17:46:09.787Z,1.08
2023-03-18T17:48:39.512Z,1.20
2023-03-18T17:51:18.080Z,1.23
2023-03-18T17:53:48.044Z,0.90
2023-03-18T17:56:17.854Z,0.80
2023-03-18T17:58:48.157Z,1.10
2023-03-18T18:01:27.258Z,1.08
2023-03-18T18:03:56.137Z,1.50
2023-03-18T18:06:31.612Z,1.35
2023-03-18T18:09:01.152Z,1.10
2023-03-18T18:11:37.857Z,1.00
2023-03-18T18:14:25.636Z,1.40
2023-03-18T18:16:55.995Z,1.40
2023-03-18T18:19:23.627Z,0.98
2023-03-18T18:21:51.273Z,0.90
2023-03-18T18:24:28.801Z,1.08
2023-03-18T18:26:56.525Z,1.05
2023-03-18T18:29:28.078Z,1.10
2023-03-18T18:31:55.738Z,1.33
2023-03-18T18:34:23.027Z,1.38
2023-03-18T18:36:51.016Z,1.35
2023-03-18T18:39:18.281Z,1.10
2023-03-18T18:41:46.426Z,1.40
2023-03-18T18:44:13.997Z,1.50
2023-03-18T18:46:41.356Z,1.67
2023-03-18T18:49:23.400Z,1.35
2023-03-18T18:51:53.369Z,1.10
2023-03-18T18:54:21.795Z,1.98
2023-03-18T18:56:49.525Z,1.50
2023-03-18T18:59:34.890Z,1.42
2023-03-18T19:02:03.437Z,1.67
2023-03-18T19:04:30.482Z,1.40
2023-03-18T19:07:07.143Z,1.15
2023-03-18T19:09:35.020Z,1.10
2023-03-18T19:12:02.167Z,1.48
2023-03-18T19:14:31.205Z,1.85
2023-03-18T19:16:59.248Z,1.92
2023-03-18T19:19:33.361Z,2.15
2023-03-18T19:22:00.580Z,2.10
2023-03-18T19:24:33.183Z,1.83
2023-03-18T19:27:04.131Z,2.00
2023-03-18T19:29:32.723Z,1.75
2023-03-18T19:32:01.701Z,1.98
2023-03-18T19:34:32.470Z,1.73
2023-03-18T19:37:02.702Z,1.33
2023-03-18T19:39:30.229Z,1.20
2023-03-18T19:41:57.217Z,1.45
2023-03-18T19:44:26.618Z,1.00
2023-03-18T19:46:56.690Z,1.02
2023-03-18T19:49:27.847Z,1.27
2023-03-18T19:51:55.954Z,1.95
2023-03-18T19:54:32.049Z,1.20
2023-03-18T19:57:03.662Z,1.63
2023-03-18T19:59:38.212Z,0.85
2023-03-18T20:02:30.787Z,1.50
2023-03-18T20:05:01.662Z,1.27
2023-03-18T20:07:31.555Z,1.20
2023-03-18T20:09:58.932Z,1.83
2023-03-18T20:12:35.214Z,1.80
2023-03-18T20:15:04.532Z,1.35
2023-03-18T20:17:39.078Z,1.50
2023-03-18T20:20:16.648Z,1.73
2023-03-18T20:22:52.901Z,1.40
2023-03-18T20:25:37.294Z,1.33
2023-03-18T20:28:05.977Z,1.40
2023-03-18T20:30:36.658Z,1.60
2023-03-18T20:33:04.614Z,1.58
2023-03-18T20:35:35.790Z,2.10
2023-03-18T20:38:25.126Z,1.60
2023-03-18T20:40:52.523Z,1.50
2023-03-18T20:43:22.291Z,1.23
2023-03-18T20:45:52.984Z,2.13
2023-03-18T20:48:20.966Z,1.45
2023-03-18T20:50:48.229Z,1.77
2023-03-18T20:53:25.472Z,1.98
2023-03-18T20:55:52.599Z,1.88
2023-03-18T20:58:23.594Z,3.10
2023-03-18T21:00:52.548Z,2.83
2023-03-18T21:03:38.076Z,1.80
2023-03-18T21:06:06.816Z,1.85
2023-03-18T21:08:34.160Z,1.52
2023-03-18T21:11:02.374Z,2.17
2023-03-18T21:13:39.012Z,2.65
2023-03-18T21:16:13.056Z,1.73
2023-03-18T21:18:42.029Z,1.33
2023-03-18T21:21:36.552Z,1.50
2023-03-18T21:24:19.437Z,2.03
2023-03-18T21:27:01.623Z,2.50
2023-03-18T21:29:30.777Z,2.78
2023-03-18T21:31:57.870Z,2.25
2023-03-18T21:34:24.829Z,2.10
2023-03-18T21:36:52.382Z,2.50
2023-03-18T21:39:20.946Z,2.90
2023-03-18T21:41:47.996Z,2.13
2023-03-18T21:44:14.933Z,1.77
2023-03-18T21:46:42.629Z,1.90
2023-03-18T21:49:09.642Z,2.20
2023-03-18T21:51:40.339Z,1.75
2023-03-18T21:54:18.338Z,1.95
2023-03-18T21:56:45.399Z,1.55
2023-03-18T21:59:12.808Z,1.65
2023-03-18T22:01:39.999Z,2.80
2023-03-18T22:04:07.574Z,1.88
2023-03-18T22:06:35.017Z,1.75
2023-03-18T22:09:02.401Z,1.55
2023-03-18T22:11:29.630Z,1.52
2023-03-18T22:13:56.890Z,2.15
2023-03-18T22:16:24.012Z,1.45
2023-03-18T22:18:51.235Z,2.10
2023-03-18T22:21:25.359Z,1.95
2023-03-18T22:23:53.320Z,1.67
2023-03-18T22:26:21.557Z,1.35
2023-03-18T22:28:50.420Z,1.30
2023-03-18T22:31:21.271Z,1.55
2023-03-18T22:33:48.588Z,1.50
2023-03-18T22:36:18.130Z,1.00
2023-03-18T22:38:46.177Z,1.35
2023-03-18T22:41:24.085Z,1.67
2023-03-18T22:43:51.528Z,1.02
2023-03-18T22:46:18.922Z,1.33
2023-03-18T22:48:46.058Z,1.35
2023-03-18T22:51:26.678Z,1.65
2023-03-18T22:53:54.625Z,1.25
2023-03-18T22:56:22.913Z,1.23
2023-03-18T22:58:51.208Z,1.58
2023-03-18T23:01:21.178Z,1.33
2023-03-18T23:03:48.911Z,1.42
2023-03-18T23:06:21.057Z,1.63
2023-03-18T23:08:48.291Z,1.48
2023-03-18T23:11:16.517Z,1.80
2023-03-18T23:13:50.041Z,1.40
2023-03-18T23:16:20.812Z,1.73
2023-03-18T23:18:48.137Z,1.95
2023-03-18T23:21:22.269Z,1.42
2023-03-18T23:23:50.092Z,1.20
2023-03-18T23:26:17.698Z,1.40
2023-03-18T23:28:45.818Z,2.05
2023-03-18T23:31:15.038Z,1.73
2023-03-18T23:33:43.005Z,1.38
2023-03-18T23:36:10.680Z,1.02
2023-03-18T23:38:38.058Z,1.55
2023-03-18T23:41:06.184Z,1.08
2023-03-18T23:43:33.199Z,1.40
2023-03-18T23:46:01.690Z,1.40
2023-03-18T23:48:28.794Z,2.05
2023-03-18T23:50:56.138Z,1.65
2023-03-18T23:53:23.249Z,1.10
2023-03-18T23:55:50.438Z,1.23
2023-03-18T23:58:17.670Z,1.13
